Time;durP1;ratioP1;P1;durP2;ratioP2;P2;SDS_P1;SDS_P2;PMS_P1;PMS_P2;Temp;Humidity;BMP_temperature;BMP_pressure;BME280_temperature;BME280_humidity;BME280_pressure;Samples;Min_cycle;Max_cycle;Signal;HPM_P1;HPM_P2
2022/12/22 03:27:53;;;;;;;8.65;7.75;;;9.50;99.90;;;;;;5003514;28;20506;-51
2022/12/22 03:30:39;;;;;;;8.38;7.50;;;9.50;99.90;;;;;;4990629;28;20392;-54
2022/12/22 03:33:26;;;;;;;8.68;7.78;;;9.70;99.90;;;;;;5005073;28;20026;-51
2022/12/22 03:36:12;;;;;;;9.73;6.60;;;9.70;99.90;;;;;;5012243;28;20037;-49
2022/12/22 03:38:58;;;;;;;8.38;7.32;;;9.70;99.90;;;;;;5015118;28;20040;-50
2022/12/22 03:47:53;;;;;;;9.27;6.95;;;9.90;99.90;;;;;;5013847;28;20022;-47
2022/12/22 03:50:39;;;;;;;9.05;7.32;;;9.80;99.90;;;;;;5010517;28;20046;-50
2022/12/22 03:53:25;;;;;;;7.75;6.18;;;9.80;99.90;;;;;;5011986;28;20034;-52
2022/12/22 03:56:11;;;;;;;8.77;7.03;;;9.80;99.90;;;;;;4991690;28;20046;-51
2022/12/22 03:58:57;;;;;;;8.60;7.30;;;9.80;99.90;;;;;;4994963;28;20037;-48
2022/12/22 04:01:46;;;;;;;7.88;6.95;;;9.80;99.90;;;;;;5028435;28;20034;-54
2022/12/22 04:04:32;;;;;;;8.50;7.03;;;9.80;99.90;;;;;;5037471;28;20048;-55
2022/12/22 04:07:18;;;;;;;8.10;7.20;;;9.80;99.90;;;;;;5032505;28;20022;-55
2022/12/22 04:13:10;;;;;;;7.38;6.60;;;9.90;99.90;;;;;;5015910;28;20109;-54
2022/12/22 04:15:56;;;;;;;7.40;6.50;;;9.80;99.90;;;;;;5013733;28;20041;-52
2022/12/22 04:18:42;;;;;;;9.20;7.18;;;9.80;99.90;;;;;;5013597;28;20041;-52
2022/12/22 04:21:27;;;;;;;14.70;11.77;;;9.80;99.90;;;;;;5014965;28;20033;-53
2022/12/22 04:24:13;;;;;;;9.82;8.80;;;9.70;99.90;;;;;;5014274;28;20121;-51
2022/12/22 04:26:59;;;;;;;10.07;9.05;;;9.70;99.90;;;;;;5016879;28;20030;-48
2022/12/22 04:29:45;;;;;;;9.27;8.48;;;9.80;99.90;;;;;;5025389;28;20021;-48
2022/12/22 04:32:31;;;;;;;9.60;6.40;;;9.70;99.90;;;;;;5018651;28;20646;-54
2022/12/22 04:35:17;;;;;;;6.90;5.97;;;9.70;99.90;;;;;;5020588;28;20053;-53
2022/12/22 04:38:03;;;;;;;7.25;5.97;;;9.90;99.90;;;;;;5020714;28;20045;-55
2022/12/22 04:40:49;;;;;;;6.75;5.63;;;9.90;99.90;;;;;;5027207;28;20342;-53
2022/12/22 04:43:35;;;;;;;6.65;6.05;;;9.90;99.90;;;;;;5029628;28;20034;-51
2022/12/22 04:46:21;;;;;;;7.63;5.88;;;9.90;99.90;;;;;;5017230;28;20371;-49
2022/12/22 04:49:07;;;;;;;5.93;5.22;;;9.90;99.90;;;;;;5027655;28;20037;-49
2022/12/22 04:51:53;;;;;;;6.20;5.60;;;9.90;99.90;;;;;;5025695;28;20038;-48
2022/12/22 04:54:39;;;;;;;7.32;5.93;;;9.90;99.90;;;;;;5014834;28;20030;-53
2022/12/22 04:57:25;;;;;;;6.65;5.32;;;9.90;99.90;;;;;;5029730;28;20453;-55
2022/12/22 05:00:11;;;;;;;6.78;5.53;;;9.90;99.90;;;;;;5019991;28;20042;-50
2022/12/22 05:02:57;;;;;;;7.63;5.72;;;9.90;99.90;;;;;;5020629;28;20387;-50
2022/12/22 05:05:43;;;;;;;6.50;5.80;;;9.90;99.90;;;;;;5024009;28;20034;-49
2022/12/22 05:08:29;;;;;;;6.88;5.20;;;9.90;99.90;;;;;;5019563;28;20053;-49
2022/12/22 05:11:15;;;;;;;6.82;5.05;;;9.90;99.90;;;;;;5011795;28;20037;-51
2022/12/22 05:14:01;;;;;;;5.35;4.80;;;9.90;99.90;;;;;;5007962;28;20105;-50
2022/12/22 05:16:47;;;;;;;5.47;4.88;;;9.90;99.90;;;;;;5013334;28;20109;-51
2022/12/22 05:19:33;;;;;;;5.43;4.70;;;10.00;99.90;;;;;;5030396;28;20030;-51
2022/12/22 05:22:18;;;;;;;6.22;4.40;;;10.00;99.90;;;;;;5029362;28;20037;-49
2022/12/22 05:25:05;;;;;;;5.30;4.68;;;10.00;99.90;;;;;;4999730;28;20029;-53
2022/12/22 05:27:51;;;;;;;5.00;4.50;;;10.00;99.90;;;;;;5015961;28;20022;-50
2022/12/22 05:30:40;;;;;;;4.97;4.47;;;9.90;99.90;;;;;;5033016;28;20026;-53
2022/12/22 05:33:26;;;;;;;5.30;4.40;;;9.90;99.90;;;;;;5031708;28;20057;-51
2022/12/22 05:36:12;;;;;;;8.00;4.70;;;9.90;99.90;;;;;;5033883;28;20056;-52
2022/12/22 05:38:58;;;;;;;5.32;4.82;;;9.90;99.90;;;;;;5018000;28;20069;-51
2022/12/22 05:41:44;;;;;;;5.78;4.93;;;9.80;99.90;;;;;;5013950;28;20157;-53
2022/12/22 05:44:30;;;;;;;6.32;5.72;;;9.80;99.90;;;;;;5029289;28;20140;-48
2022/12/22 05:47:16;;;;;;;6.88;6.05;;;9.80;99.90;;;;;;5033923;28;20451;-52
2022/12/22 05:50:02;;;;;;;8.38;6.40;;;9.80;99.90;;;;;;5025875;28;20022;-52
2022/12/22 05:52:48;;;;;;;6.47;5.60;;;9.80;99.90;;;;;;5029042;28;20241;-50
2022/12/22 05:55:34;;;;;;;7.07;5.15;;;9.80;99.90;;;;;;5013675;28;20034;-51
2022/12/22 05:58:20;;;;;;;5.60;4.57;;;9.80;99.90;;;;;;5028379;28;20560;-50
2022/12/22 06:01:06;;;;;;;5.80;5.10;;;9.70;99.90;;;;;;5032880;28;20463;-51
2022/12/22 06:03:52;;;;;;;7.95;5.15;;;9.80;99.90;;;;;;5033883;28;20088;-50
2022/12/22 06:06:38;;;;;;;5.75;5.18;;;9.80;99.90;;;;;;5031291;28;20025;-50
2022/12/22 06:09:24;;;;;;;6.40;5.22;;;9.80;99.90;;;;;;5032371;28;20030;-48
2022/12/22 06:12:10;;;;;;;7.18;5.88;;;9.80;99.90;;;;;;5015091;28;20057;-50
2022/12/22 06:14:56;;;;;;;6.78;5.30;;;9.70;99.90;;;;;;5013372;28;20038;-52
2022/12/22 06:17:42;;;;;;;7.53;5.30;;;9.70;99.90;;;;;;4994289;28;20034;-54
2022/12/22 06:20:28;;;;;;;4.68;4.18;;;9.70;99.90;;;;;;4986348;28;20076;-49
2022/12/22 06:23:14;;;;;;;4.65;4.15;;;9.60;99.90;;;;;;5032130;28;20029;-49
2022/12/22 06:26:01;;;;;;;4.63;3.65;;;9.60;99.90;;;;;;5025233;28;20029;-51
2022/12/22 06:28:47;;;;;;;4.28;3.42;;;9.70;99.90;;;;;;5013077;28;20033;-50
2022/12/22 06:31:33;;;;;;;3.67;3.13;;;9.60;99.90;;;;;;5031502;28;20038;-53
2022/12/22 06:34:20;;;;;;;3.72;3.10;;;9.60;99.90;;;;;;5029430;28;20034;-49
2022/12/22 06:37:06;;;;;;;3.95;3.35;;;9.60;99.90;;;;;;5013872;28;20105;-54
2022/12/22 06:39:51;;;;;;;4.22;3.00;;;9.60;99.90;;;;;;5015084;28;20052;-55
2022/12/22 06:45:43;;;;;;;5.17;4.03;;;9.60;99.90;;;;;;5007306;28;20066;-52
2022/12/22 06:48:29;;;;;;;5.80;4.22;;;9.60;99.90;;;;;;5005471;28;20162;-55
2022/12/22 06:51:15;;;;;;;6.70;5.30;;;9.60;99.90;;;;;;5019716;28;20483;-49
2022/12/22 06:54:00;;;;;;;7.28;5.97;;;9.60;99.90;;;;;;5020589;28;20026;-53
2022/12/22 06:56:46;;;;;;;12.40;9.13;;;9.60;99.90;;;;;;4995823;28;20084;-52
2022/12/22 06:59:32;;;;;;;11.52;10.32;;;9.60;99.90;;;;;;5002138;28;20410;-49
2022/12/22 07:02:18;;;;;;;11.50;10.18;;;9.60;99.90;;;;;;5028082;28;20064;-57
2022/12/22 07:05:05;;;;;;;13.50;11.13;;;9.60;99.90;;;;;;5030878;28;20030;-50
2022/12/22 07:07:51;;;;;;;13.23;10.50;;;9.70;99.90;;;;;;5020698;28;20029;-51
2022/12/22 07:13:42;;;;;;;14.57;11.10;;;9.60;99.90;;;;;;5019801;28;20026;-53
2022/12/22 07:16:28;;;;;;;10.75;9.45;;;9.60;99.90;;;;;;5012194;28;20513;-51
2022/12/22 07:19:14;;;;;;;9.55;6.85;;;9.60;99.90;;;;;;4991503;28;20144;-52
2022/12/22 07:22:00;;;;;;;7.63;5.35;;;9.70;99.90;;;;;;4991281;28;20069;-53
2022/12/22 07:24:46;;;;;;;4.40;3.95;;;9.60;99.90;;;;;;4992253;28;20034;-54
2022/12/22 07:27:32;;;;;;;4.28;3.63;;;9.70;99.90;;;;;;4992680;28;20110;-52
2022/12/22 07:30:17;;;;;;;3.60;3.03;;;9.70;99.90;;;;;;4991583;28;20030;-55
2022/12/22 07:33:04;;;;;;;4.68;2.90;;;9.60;99.90;;;;;;5000105;28;20113;-53
2022/12/22 07:36:07;;;;;;;4.35;3.08;;;9.60;99.90;;;;;;5009569;28;20026;-53
2022/12/22 07:38:53;;;;;;;9.65;3.30;;;9.60;99.90;;;;;;5011968;28;20532;-52
2022/12/22 07:44:44;;;;;;;8.10;3.38;;;9.60;99.90;;;;;;5011964;28;20154;-51
2022/12/22 07:47:30;;;;;;;3.20;2.90;;;9.70;99.90;;;;;;5009166;28;20109;-50
2022/12/22 07:50:26;;;;;;;4.40;3.20;;;9.70;99.90;;;;;;5011350;28;20026;-48
2022/12/22 07:53:12;;;;;;;3.60;3.00;;;9.60;99.90;;;;;;5011007;28;20041;-50
2022/12/22 07:56:01;;;;;;;3.63;2.72;;;9.70;99.90;;;;;;5010469;28;20033;-51
2022/12/22 07:58:47;;;;;;;7.40;3.30;;;9.60;99.90;;;;;;5009986;28;20092;-50
2022/12/22 08:01:33;;;;;;;3.35;2.60;;;9.60;99.90;;;;;;5022417;28;20401;-49
2022/12/22 08:04:21;;;;;;;3.05;2.75;;;9.60;99.90;;;;;;5030720;28;20500;-49
2022/12/22 08:07:07;;;;;;;10.23;2.90;;;9.70;99.90;;;;;;5030210;28;20085;-52
2022/12/22 08:09:53;;;;;;;4.00;2.60;;;9.60;99.90;;;;;;5028964;28;20042;-48
2022/12/22 08:12:38;;;;;;;2.90;2.60;;;9.50;99.90;;;;;;5016887;28;20161;-51
2022/12/22 08:15:24;;;;;;;4.72;3.05;;;9.50;99.90;;;;;;5007286;28;20169;-50
2022/12/22 08:18:10;;;;;;;6.45;3.35;;;9.50;99.90;;;;;;5010959;28;20026;-53
2022/12/22 08:20:56;;;;;;;7.30;3.03;;;9.50;99.90;;;;;;5010959;28;20034;-54
2022/12/22 08:23:42;;;;;;;7.32;3.33;;;9.50;99.90;;;;;;5011094;28;20410;-54
2022/12/22 08:26:43;;;;;;;4.47;3.40;;;9.60;99.90;;;;;;5011089;28;20026;-54
2022/12/22 08:29:37;;;;;;;4.00;3.33;;;9.60;99.90;;;;;;5007951;28;20044;-48
2022/12/22 08:32:23;;;;;;;5.72;4.05;;;9.70;99.90;;;;;;5011320;28;20037;-53
2022/12/22 08:35:09;;;;;;;6.65;4.10;;;9.70;99.90;;;;;;5010338;28;20018;-51
2022/12/22 08:37:55;;;;;;;6.13;4.03;;;9.70;99.90;;;;;;5010157;28;20384;-49
2022/12/22 08:40:43;;;;;;;13.57;4.13;;;9.70;99.90;;;;;;5003713;28;20037;-51
2022/12/22 08:43:31;;;;;;;5.70;3.88;;;9.70;99.90;;;;;;5005478;28;20510;-56
2022/12/22 08:46:17;;;;;;;7.70;3.70;;;9.70;99.90;;;;;;5002511;28;20019;-49
2022/12/22 08:49:03;;;;;;;5.63;3.63;;;9.80;99.90;;;;;;5010127;28;20402;-52
2022/12/22 08:51:49;;;;;;;5.35;3.88;;;9.70;99.90;;;;;;5010604;28;20084;-52
2022/12/22 08:54:35;;;;;;;6.22;4.72;;;9.70;99.90;;;;;;5011210;28;20465;-51
2022/12/22 08:57:21;;;;;;;6.00;5.40;;;9.70;99.90;;;;;;5010786;28;20107;-51
2022/12/22 09:00:09;;;;;;;8.48;7.05;;;9.60;99.90;;;;;;5007175;28;20099;-54
2022/12/22 09:02:55;;;;;;;7.55;6.75;;;9.70;99.90;;;;;;5010960;28;20430;-49
2022/12/22 09:05:41;;;;;;;9.40;7.57;;;9.80;99.90;;;;;;5006520;28;20021;-51
2022/12/22 09:08:27;;;;;;;8.88;7.47;;;9.70;99.90;;;;;;5014279;28;20066;-50
2022/12/22 09:11:15;;;;;;;8.30;6.82;;;9.80;99.90;;;;;;5011386;28;20406;-52
2022/12/22 09:14:02;;;;;;;7.70;6.03;;;9.80;99.90;;;;;;4999013;28;20037;-54
2022/12/22 09:16:49;;;;;;;8.70;7.35;;;9.80;99.90;;;;;;5003837;28;20068;-51
2022/12/22 09:19:35;;;;;;;8.27;5.95;;;9.80;99.90;;;;;;5011991;28;20118;-51
2022/12/22 09:22:20;;;;;;;6.85;5.63;;;9.80;99.90;;;;;;5022854;28;20343;-53
2022/12/22 09:25:07;;;;;;;6.85;5.72;;;9.80;99.90;;;;;;5012408;28;20045;-48
2022/12/22 09:27:53;;;;;;;6.50;5.82;;;9.80;99.90;;;;;;5014350;28;20026;-51
2022/12/22 09:30:39;;;;;;;5.88;5.18;;;9.90;99.90;;;;;;5011334;28;20025;-54
2022/12/22 09:33:25;;;;;;;6.13;5.50;;;9.90;99.90;;;;;;5009905;28;20112;-49
2022/12/22 09:36:14;;;;;;;5.68;5.07;;;9.90;99.90;;;;;;5000374;28;20068;-57
2022/12/22 09:39:07;;;;;;;6.18;5.45;;;9.90;99.90;;;;;;5010526;28;20041;-49
2022/12/22 09:41:56;;;;;;;5.93;5.00;;;9.90;99.90;;;;;;5011411;28;20034;-50
2022/12/22 09:44:44;;;;;;;13.07;6.10;;;9.90;99.90;;;;;;5012720;28;20030;-50
2022/12/22 09:47:37;;;;;;;8.57;6.13;;;9.90;99.90;;;;;;5012529;28;20026;-50
2022/12/22 09:50:25;;;;;;;11.88;5.70;;;10.00;99.90;;;;;;5031827;28;20497;-52
2022/12/22 09:53:19;;;;;;;11.10;6.13;;;10.00;99.90;;;;;;5034164;28;20414;-48
2022/12/22 09:56:10;;;;;;;8.75;5.90;;;10.00;99.90;;;;;;5027324;28;20023;-52
2022/12/22 09:58:57;;;;;;;6.70;5.72;;;10.10;99.90;;;;;;5025122;28;20053;-49
2022/12/22 10:02:02;;;;;;;6.90;5.60;;;10.00;99.90;;;;;;5024613;28;20069;-50
2022/12/22 10:04:59;;;;;;;11.77;5.90;;;10.00;99.90;;;;;;5032569;28;20159;-54
2022/12/22 10:07:45;;;;;;;8.20;5.32;;;10.10;99.90;;;;;;5033013;28;20151;-54
2022/12/22 10:10:31;;;;;;;8.00;4.70;;;10.10;99.90;;;;;;5012389;28;20040;-48
2022/12/22 10:13:18;;;;;;;5.43;4.30;;;10.10;99.90;;;;;;5004148;28;20104;-50
2022/12/22 10:16:26;;;;;;;4.78;3.88;;;10.10;99.90;;;;;;5011373;28;20026;-50
2022/12/22 10:19:13;;;;;;;6.25;4.40;;;10.20;99.90;;;;;;5013437;28;20025;-48
2022/12/22 10:22:19;;;;;;;7.20;4.20;;;10.20;99.90;;;;;;5011814;28;20022;-49
2022/12/22 10:25:05;;;;;;;5.95;3.80;;;10.30;99.90;;;;;;4995636;28;20116;-52
2022/12/22 10:27:53;;;;;;;8.13;4.47;;;10.40;99.90;;;;;;5011135;28;20026;-49
2022/12/22 10:30:40;;;;;;;5.20;3.50;;;10.40;99.90;;;;;;5010441;28;20025;-53
2022/12/22 10:33:33;;;;;;;9.80;4.00;;;10.50;99.90;;;;;;5007908;28;20014;-51
2022/12/22 10:36:23;;;;;;;4.38;3.75;;;10.60;99.90;;;;;;5009185;28;20022;-53
2022/12/22 10:39:11;;;;;;;9.85;4.00;;;10.60;99.90;;;;;;4996319;28;20022;-48
2022/12/22 10:42:13;;;;;;;6.20;3.40;;;10.70;99.90;;;;;;5010589;28;20080;-49
2022/12/22 10:44:59;;;;;;;5.22;3.58;;;10.70;99.90;;;;;;5011461;28;20189;-48
2022/12/22 10:47:51;;;;;;;4.63;3.30;;;10.70;99.90;;;;;;5009760;28;20022;-50
2022/12/22 10:50:45;;;;;;;4.05;3.38;;;10.70;99.90;;;;;;5010995;28;20030;-48
2022/12/22 10:53:51;;;;;;;3.45;3.05;;;10.60;99.90;;;;;;5009547;28;20142;-48
2022/12/22 10:56:37;;;;;;;4.45;3.20;;;10.60;99.90;;;;;;5007078;28;20162;-51
2022/12/22 10:59:23;;;;;;;4.45;2.63;;;10.60;99.90;;;;;;5009793;28;20038;-55
2022/12/22 11:02:33;;;;;;;4.50;2.85;;;10.60;99.90;;;;;;5008833;28;20030;-49
2022/12/22 11:05:20;;;;;;;2.95;2.22;;;10.50;99.90;;;;;;5011525;28;20033;-49
2022/12/22 11:08:18;;;;;;;3.30;2.40;;;10.60;99.90;;;;;;5009269;28;20030;-55
2022/12/22 11:11:11;;;;;;;2.83;2.22;;;10.50;99.90;;;;;;5008214;28;20567;-53
2022/12/22 11:14:14;;;;;;;3.28;2.38;;;10.60;99.90;;;;;;5002262;28;20502;-50
2022/12/22 11:17:31;;;;;;;3.03;2.47;;;10.60;99.90;;;;;;5014668;28;20041;-55
2022/12/22 11:20:26;;;;;;;2.67;2.33;;;10.60;99.90;;;;;;5013067;28;20047;-53
2022/12/22 11:23:29;;;;;;;2.53;1.95;;;10.70;99.90;;;;;;5010602;28;20037;-52
2022/12/22 11:26:22;;;;;;;3.03;2.20;;;10.70;99.90;;;;;;5013580;28;20050;-51
2022/12/22 11:29:30;;;;;;;2.40;2.00;;;10.70;99.90;;;;;;5011633;28;20022;-53
2022/12/22 11:32:40;;;;;;;2.15;1.80;;;10.80;99.90;;;;;;5009862;28;20029;-50
2022/12/22 11:35:32;;;;;;;2.17;1.98;;;10.90;99.90;;;;;;5010854;28;20549;-55
2022/12/22 11:38:27;;;;;;;2.35;1.92;;;10.90;99.90;;;;;;5009145;28;20032;-54
2022/12/22 11:41:25;;;;;;;3.33;1.95;;;10.90;99.90;;;;;;5010575;28;20536;-54
2022/12/22 11:44:35;;;;;;;2.88;2.10;;;10.90;99.90;;;;;;5011599;28;20411;-53
2022/12/22 11:47:21;;;;;;;2.25;2.05;;;10.90;99.90;;;;;;5020606;28;20030;-54
2022/12/22 11:50:38;;;;;;;2.35;2.15;;;11.00;99.90;;;;;;5018683;28;20505;-51
2022/12/22 11:53:33;;;;;;;2.47;1.98;;;11.00;99.90;;;;;;5031484;28;20158;-51
2022/12/22 11:56:35;;;;;;;1.90;1.80;;;11.00;99.90;;;;;;5031768;28;20025;-50
2022/12/22 11:59:39;;;;;;;3.05;1.75;;;10.90;99.90;;;;;;5027843;28;20034;-55
2022/12/22 12:02:48;;;;;;;4.18;2.10;;;10.90;99.90;;;;;;5019867;28;20034;-52
2022/12/22 12:06:12;;;;;;;2.08;1.70;;;11.00;99.90;;;;;;5031789;28;20033;-49
2022/12/22 12:09:27;;;;;;;1.70;1.60;;;11.00;99.90;;;;;;5017282;28;20083;-47
2022/12/22 12:12:26;;;;;;;3.08;2.15;;;11.10;99.90;;;;;;5023621;28;20026;-55
2022/12/22 12:15:23;;;;;;;10.18;3.42;;;11.10;99.90;;;;;;5009483;28;20425;-54
2022/12/22 12:18:51;;;;;;;6.88;2.88;;;11.20;99.90;;;;;;5001492;28;20093;-53
2022/12/22 12:21:48;;;;;;;4.47;2.30;;;11.30;99.90;;;;;;5008640;28;20088;-52
2022/12/22 12:25:00;;;;;;;5.53;2.20;;;11.40;99.90;;;;;;4996524;28;20022;-48
2022/12/22 12:28:03;;;;;;;2.60;1.85;;;11.40;99.90;;;;;;5006150;28;20018;-52
2022/12/22 12:30:53;;;;;;;2.22;1.88;;;11.40;99.90;;;;;;5013479;28;20033;-50
2022/12/22 12:33:50;;;;;;;2.55;1.88;;;11.30;99.90;;;;;;4996226;28;20026;-54
2022/12/22 12:36:46;;;;;;;3.78;1.67;;;11.40;99.90;;;;;;4995966;28;20057;-48
2022/12/22 12:40:03;;;;;;;3.17;1.98;;;11.30;99.90;;;;;;5016600;28;20116;-52
2022/12/22 12:42:51;;;;;;;4.43;1.98;;;11.30;99.90;;;;;;4997458;28;20028;-53
2022/12/22 12:45:40;;;;;;;4.25;1.85;;;11.30;99.90;;;;;;5008139;28;20026;-50
2022/12/22 12:48:27;;;;;;;3.42;1.98;;;11.40;99.90;;;;;;5010639;28;20014;-49
2022/12/22 12:51:53;;;;;;;4.90;2.10;;;11.40;99.90;;;;;;5011522;28;20030;-51
2022/12/22 12:54:41;;;;;;;1.98;1.85;;;11.30;99.90;;;;;;5008222;28;20174;-55
2022/12/22 12:57:29;;;;;;;2.83;2.17;;;11.10;99.90;;;;;;4994971;28;20038;-53
2022/12/22 13:00:38;;;;;;;2.47;2.10;;;11.10;99.90;;;;;;5007958;28;20038;-55
2022/12/22 13:03:24;;;;;;;7.78;2.53;;;11.00;99.90;;;;;;4992200;28;20038;-54
2022/12/22 13:06:45;;;;;;;2.63;2.30;;;10.90;99.90;;;;;;5018810;28;20076;-53
2022/12/22 13:09:32;;;;;;;5.97;2.47;;;11.00;99.90;;;;;;5016789;28;20021;-54
2022/12/22 13:12:33;;;;;;;2.72;2.20;;;10.90;99.90;;;;;;5013785;28;20058;-53
2022/12/22 13:15:27;;;;;;;3.60;2.72;;;10.90;99.90;;;;;;5015594;28;20028;-58
2022/12/22 13:18:27;;;;;;;3.35;2.50;;;10.80;99.90;;;;;;5008699;28;20084;-55
2022/12/22 13:21:21;;;;;;;3.60;2.80;;;10.70;99.90;;;;;;5014319;28;20106;-56
2022/12/22 13:24:14;;;;;;;4.53;2.63;;;10.60;99.90;;;;;;5013999;28;20112;-54
2022/12/22 13:27:03;;;;;;;5.00;2.72;;;10.70;99.90;;;;;;5012954;28;20046;-55
2022/12/22 13:29:51;;;;;;;2.90;2.30;;;10.80;99.90;;;;;;5014389;28;20029;-54
2022/12/22 13:32:39;;;;;;;3.90;2.70;;;10.70;99.90;;;;;;5014023;28;20025;-53
2022/12/22 13:35:39;;;;;;;4.85;2.47;;;10.70;99.90;;;;;;5014429;28;20022;-57
2022/12/22 13:38:32;;;;;;;4.00;2.42;;;10.80;99.90;;;;;;5013259;28;20129;-52
2022/12/22 13:41:20;;;;;;;3.22;2.65;;;10.70;99.90;;;;;;5009357;28;20022;-50
2022/12/22 13:44:09;;;;;;;3.47;2.53;;;10.60;99.90;;;;;;5014021;28;20029;-54
2022/12/22 13:47:02;;;;;;;3.13;2.80;;;10.60;99.90;;;;;;5014375;28;20050;-50
2022/12/22 13:49:48;;;;;;;4.35;2.70;;;10.60;99.90;;;;;;5014200;28;20038;-54
2022/12/22 13:52:34;;;;;;;3.63;2.90;;;10.50;99.90;;;;;;5007371;28;20026;-56
2022/12/22 13:55:25;;;;;;;3.47;3.08;;;10.60;99.90;;;;;;5027238;28;20037;-52
2022/12/22 13:58:32;;;;;;;4.15;2.78;;;10.50;99.90;;;;;;5027962;28;20046;-51
2022/12/22 14:01:19;;;;;;;3.50;2.90;;;10.50;99.90;;;;;;5037466;28;20028;-52
2022/12/22 14:04:06;;;;;;;3.90;3.42;;;10.50;99.90;;;;;;5045995;28;20037;-52
2022/12/22 14:06:53;;;;;;;3.90;3.20;;;10.50;99.90;;;;;;5021412;28;20077;-55
2022/12/22 14:09:48;;;;;;;4.22;3.47;;;10.50;99.90;;;;;;5011613;28;20018;-50
2022/12/22 14:12:51;;;;;;;4.63;3.30;;;10.60;99.90;;;;;;5013223;28;20018;-48
2022/12/22 14:15:37;;;;;;;4.15;3.65;;;10.60;99.90;;;;;;4997205;28;20513;-47
2022/12/22 14:18:25;;;;;;;4.57;3.30;;;10.60;99.90;;;;;;5012927;28;20026;-51
2022/12/22 14:21:11;;;;;;;3.72;3.42;;;10.60;99.90;;;;;;5009516;28;20401;-53
2022/12/22 14:23:57;;;;;;;4.03;3.28;;;10.70;99.90;;;;;;5012130;28;20026;-52
2022/12/22 14:26:43;;;;;;;5.38;3.40;;;10.70;99.90;;;;;;5013656;28;20466;-54
2022/12/22 14:29:30;;;;;;;3.75;3.10;;;10.60;99.90;;;;;;5013541;28;20507;-48
2022/12/22 14:32:35;;;;;;;5.18;3.25;;;10.60;99.90;;;;;;5013255;28;20064;-57
2022/12/22 14:35:24;;;;;;;4.50;3.70;;;10.50;99.90;;;;;;5019387;28;20018;-50
2022/12/22 14:38:15;;;;;;;6.22;4.40;;;10.50;99.90;;;;;;5014612;28;20021;-51
2022/12/22 14:41:40;;;;;;;6.25;5.65;;;10.50;99.90;;;;;;5023751;28;20053;-53
2022/12/22 14:44:23;;;;;;;6.63;5.95;;;10.50;99.90;;;;;;5008365;28;20025;-53
2022/12/22 14:47:18;;;;;;;6.75;6.10;;;10.50;99.90;;;;;;5016464;28;20111;-53
2022/12/22 14:50:18;;;;;;;7.18;6.47;;;10.40;99.90;;;;;;5013444;28;20018;-49
2022/12/22 14:53:05;;;;;;;7.50;6.80;;;10.30;99.90;;;;;;5004510;28;20049;-48
2022/12/22 14:55:52;;;;;;;7.25;6.55;;;10.40;99.90;;;;;;5012698;28;20400;-52
2022/12/22 14:58:43;;;;;;;7.68;6.88;;;10.30;99.90;;;;;;5015335;28;20041;-49
2022/12/22 15:01:29;;;;;;;7.90;7.00;;;10.40;99.90;;;;;;5020774;28;20026;-50
2022/12/22 15:04:18;;;;;;;8.35;7.55;;;10.30;99.90;;;;;;5007232;28;20070;-52
2022/12/22 15:07:14;;;;;;;7.20;6.47;;;10.30;99.90;;;;;;5012670;28;20042;-49
2022/12/22 15:10:00;;;;;;;6.78;6.13;;;10.30;99.90;;;;;;4999150;28;20037;-51
2022/12/22 15:12:48;;;;;;;7.35;6.65;;;10.20;99.90;;;;;;5012061;28;20022;-51
2022/12/22 15:15:34;;;;;;;7.07;6.30;;;10.30;99.90;;;;;;5015081;28;20024;-48
2022/12/22 15:18:25;;;;;;;7.60;6.43;;;10.30;99.90;;;;;;5024299;28;20033;-46
2022/12/22 15:21:13;;;;;;;7.05;6.25;;;10.30;99.90;;;;;;5019843;28;20029;-51
2022/12/22 15:23:59;;;;;;;6.97;6.13;;;10.30;99.90;;;;;;5003973;28;20037;-51
2022/12/22 15:26:45;;;;;;;6.63;5.93;;;10.40;99.90;;;;;;5012534;28;20033;-51
2022/12/22 15:29:31;;;;;;;7.05;6.35;;;10.30;99.90;;;;;;5011482;28;20029;-52
2022/12/22 15:32:17;;;;;;;6.90;6.22;;;10.30;99.90;;;;;;4996205;28;20126;-50
2022/12/22 15:35:14;;;;;;;7.35;6.65;;;10.20;99.90;;;;;;5012761;28;20113;-54
2022/12/22 15:38:00;;;;;;;7.03;6.38;;;10.20;99.90;;;;;;5014492;28;20026;-54
2022/12/22 15:40:47;;;;;;;6.80;6.10;;;10.30;99.90;;;;;;5012243;28;20193;-51
2022/12/22 15:43:34;;;;;;;8.45;7.18;;;10.20;99.90;;;;;;5011628;28;20510;-52
2022/12/22 15:46:20;;;;;;;7.50;6.75;;;10.20;99.90;;;;;;5025551;28;20029;-51
2022/12/22 15:49:19;;;;;;;7.75;6.93;;;10.30;99.90;;;;;;5011844;28;20034;-52
2022/12/22 15:52:07;;;;;;;8.45;7.15;;;10.30;99.90;;;;;;5012384;28;20037;-54
2022/12/22 15:54:53;;;;;;;8.38;7.25;;;10.10;99.90;;;;;;4996104;28;20033;-50
2022/12/22 15:57:39;;;;;;;9.60;7.53;;;10.10;99.90;;;;;;5007109;28;20030;-49
2022/12/22 16:00:25;;;;;;;8.35;7.55;;;10.10;99.90;;;;;;5017489;28;20030;-48
2022/12/22 16:03:11;;;;;;;8.02;7.22;;;10.10;99.90;;;;;;5011086;28;20033;-50
2022/12/22 16:05:59;;;;;;;9.75;8.30;;;10.10;99.90;;;;;;5007624;28;20126;-48
2022/12/22 16:08:49;;;;;;;10.18;9.02;;;10.10;99.90;;;;;;5012619;28;20440;-49
2022/12/22 16:11:37;;;;;;;12.18;9.65;;;9.90;99.90;;;;;;5014217;28;20017;-49
2022/12/22 16:14:23;;;;;;;10.48;8.73;;;9.80;99.90;;;;;;5011487;28;20033;-48
2022/12/22 16:17:17;;;;;;;8.48;7.38;;;9.90;99.90;;;;;;5011537;28;20117;-50
2022/12/22 16:20:03;;;;;;;9.70;7.38;;;9.90;99.90;;;;;;5011219;28;20121;-50
2022/12/22 16:22:50;;;;;;;8.40;7.47;;;9.80;99.90;;;;;;5026517;28;20040;-52
2022/12/22 16:25:38;;;;;;;9.20;7.28;;;9.80;99.90;;;;;;4990737;28;20023;-51
2022/12/22 16:28:24;;;;;;;10.48;7.88;;;9.90;99.90;;;;;;5028013;28;20032;-54
2022/12/22 16:31:36;;;;;;;9.15;7.15;;;9.80;99.90;;;;;;5030446;28;20493;-49
2022/12/22 16:34:22;;;;;;;10.93;7.57;;;9.70;99.90;;;;;;4990937;28;20106;-52
2022/12/22 16:37:08;;;;;;;9.88;8.00;;;9.70;99.90;;;;;;5006694;28;20112;-55
2022/12/22 16:39:54;;;;;;;8.73;7.82;;;9.70;99.90;;;;;;5031107;28;20034;-52
2022/12/22 16:43:09;;;;;;;9.90;8.25;;;9.70;99.90;;;;;;5019333;28;20038;-56
2022/12/22 16:45:56;;;;;;;10.85;7.78;;;9.60;99.90;;;;;;5001465;28;20537;-56
2022/12/22 16:48:49;;;;;;;8.32;7.32;;;9.60;99.90;;;;;;5019078;28;20038;-56
2022/12/22 16:51:43;;;;;;;7.68;6.85;;;9.60;99.90;;;;;;5007398;28;20462;-52
2022/12/22 16:54:28;;;;;;;7.57;6.55;;;9.50;99.90;;;;;;5012814;28;20025;-54
2022/12/22 16:57:14;;;;;;;7.00;6.30;;;9.40;99.90;;;;;;5012220;28;20042;-49
2022/12/22 17:00:00;;;;;;;8.90;7.03;;;9.40;99.90;;;;;;5011201;28;20029;-51
2022/12/22 17:02:59;;;;;;;7.70;6.82;;;9.30;99.90;;;;;;4994299;28;20049;-52
2022/12/22 17:05:54;;;;;;;10.98;7.80;;;9.20;99.90;;;;;;5014705;28;20023;-49
2022/12/22 17:08:42;;;;;;;6.82;6.18;;;9.20;99.90;;;;;;5011106;28;20038;-50
2022/12/22 17:11:31;;;;;;;7.30;6.35;;;9.30;99.90;;;;;;5007673;28;20498;-48
2022/12/22 17:14:30;;;;;;;7.60;6.15;;;9.30;99.90;;;;;;5014441;28;20384;-50
2022/12/22 17:17:21;;;;;;;7.13;6.43;;;9.30;99.90;;;;;;5010360;28;20510;-53
2022/12/22 17:20:12;;;;;;;6.53;5.38;;;9.20;99.90;;;;;;4992227;28;20031;-52
2022/12/22 17:23:00;;;;;;;6.50;5.85;;;9.40;99.90;;;;;;4991758;28;20503;-49
2022/12/22 17:25:46;;;;;;;6.97;6.13;;;9.50;99.90;;;;;;5028014;28;20422;-52
2022/12/22 17:28:34;;;;;;;8.30;6.30;;;9.60;99.90;;;;;;5013740;28;20029;-50
2022/12/22 17:31:21;;;;;;;7.53;6.70;;;9.50;99.90;;;;;;4991611;28;20482;-50
2022/12/22 17:34:15;;;;;;;6.82;6.18;;;9.40;99.90;;;;;;4993875;28;20525;-54
2022/12/22 17:37:01;;;;;;;7.38;6.53;;;9.40;99.90;;;;;;5022827;28;20065;-55
2022/12/22 17:39:50;;;;;;;8.00;6.68;;;9.30;99.90;;;;;;5016297;28;20034;-52
2022/12/22 17:42:35;;;;;;;9.88;7.13;;;9.30;99.90;;;;;;5013582;28;20509;-48
2022/12/22 17:45:21;;;;;;;8.70;7.70;;;9.30;99.90;;;;;;5013930;28;20052;-49
2022/12/22 17:48:08;;;;;;;8.77;7.05;;;9.20;99.90;;;;;;5014002;28;20058;-51
2022/12/22 17:50:53;;;;;;;9.43;7.78;;;9.20;99.90;;;;;;5026979;28;20038;-48
2022/12/22 17:53:39;;;;;;;10.15;8.10;;;9.00;99.90;;;;;;5011118;28;20042;-51
2022/12/22 17:56:26;;;;;;;8.73;7.50;;;8.90;99.90;;;;;;5013739;28;20029;-51
2022/12/22 17:59:12;;;;;;;11.05;8.75;;;8.80;99.90;;;;;;5013720;28;20033;-49
2022/12/22 18:01:59;;;;;;;11.43;8.48;;;8.80;99.90;;;;;;5010964;28;20458;-56
2022/12/22 18:04:45;;;;;;;11.40;8.70;;;8.80;99.90;;;;;;5014065;28;20037;-53
2022/12/22 18:07:32;;;;;;;14.57;9.23;;;8.70;99.90;;;;;;5000679;28;20021;-51
2022/12/22 18:10:30;;;;;;;11.30;9.27;;;8.70;99.90;;;;;;5024265;28;20555;-54
2022/12/22 18:13:20;;;;;;;12.82;8.88;;;8.90;99.90;;;;;;5009116;28;20499;-53
2022/12/22 18:16:06;;;;;;;13.55;8.38;;;8.90;99.90;;;;;;5014605;28;20506;-54
2022/12/22 18:18:52;;;;;;;10.65;8.85;;;9.00;99.90;;;;;;5012708;28;20377;-52
2022/12/22 18:21:38;;;;;;;10.25;7.82;;;9.40;99.90;;;;;;5009992;28;20045;-50
2022/12/22 18:24:24;;;;;;;12.55;8.18;;;9.50;99.90;;;;;;5012169;28;20048;-53
2022/12/22 18:27:14;;;;;;;11.90;8.80;;;9.30;99.90;;;;;;5012536;28;20030;-55
2022/12/22 18:30:00;;;;;;;11.00;8.60;;;9.20;99.90;;;;;;5013452;28;20030;-49
2022/12/22 18:32:47;;;;;;;12.48;9.15;;;9.00;99.90;;;;;;4999451;28;20033;-48
2022/12/22 18:35:34;;;;;;;14.15;10.32;;;8.80;99.90;;;;;;4998691;28;20372;-52